sensor_id;sensor_type;location;lat;lon;timestamp;temperature;humidity
7684;DHT22;3884;48.616;12.872;2022-11-15T00:01:16;3.30;99.90
7684;DHT22;3884;48.616;12.872;2022-11-15T00:04:02;3.40;99.90
7684;DHT22;3884;48.616;12.872;2022-11-15T00:06:49;3.50;99.90
7684;DHT22;3884;48.616;12.872;2022-11-15T00:09:34;3.50;99.90
7684;DHT22;3884;48.616;12.872;2022-11-15T00:12:20;3.50;99.90
7684;DHT22;3884;48.616;12.872;2022-11-15T00:15:07;3.40;99.90
7684;DHT22;3884;48.616;12.872;2022-11-15T00:17:52;3.40;99.90
7684;DHT22;3884;48.616;12.872;2022-11-15T00:20:38;3.30;99.90
7684;DHT22;3884;48.616;12.872;2022-11-15T00:23:25;3.30;99.90
7684;DHT22;3884;48.616;12.872;2022-11-15T00:26:12;3.30;99.90
7684;DHT22;3884;48.616;12.872;2022-11-15T00:28:58;3.30;99.90
7684;DHT22;3884;48.616;12.872;2022-11-15T00:31:43;3.30;99.90
7684;DHT22;3884;48.616;12.872;2022-11-15T00:34:29;3.30;99.90
7684;DHT22;3884;48.616;12.872;2022-11-15T00:37:14;3.20;99.90
7684;DHT22;3884;48.616;12.872;2022-11-15T00:40:01;3.10;99.90
7684;DHT22;3884;48.616;12.872;2022-11-15T00:42:47;3.20;99.90
7684;DHT22;3884;48.616;12.872;2022-11-15T00:45:32;3.20;99.90
7684;DHT22;3884;48.616;12.872;2022-11-15T00:48:18;3.20;99.90
7684;DHT22;3884;48.616;12.872;2022-11-15T00:51:04;3.10;99.90
7684;DHT22;3884;48.616;12.872;2022-11-15T00:53:49;3.20;99.90
7684;DHT22;3884;48.616;12.872;2022-11-15T00:56:36;2.90;99.90
7684;DHT22;3884;48.616;12.872;2022-11-15T00:59:22;2.80;99.90
7684;DHT22;3884;48.616;12.872;2022-11-15T01:02:07;2.80;99.90
7684;DHT22;3884;48.616;12.872;2022-11-15T01:04:53;2.80;99.90
7684;DHT22;3884;48.616;12.872;2022-11-15T01:07:38;2.70;99.90
7684;DHT22;3884;48.616;12.872;2022-11-15T01:10:24;2.80;99.90
7684;DHT22;3884;48.616;12.872;2022-11-15T01:13:11;2.90;99.90
7684;DHT22;3884;48.616;12.872;2022-11-15T01:15:56;2.90;99.90
7684;DHT22;3884;48.616;12.872;2022-11-15T01:18:44;2.80;99.90
7684;DHT22;3884;48.616;12.872;2022-11-15T01:21:29;2.80;99.90
7684;DHT22;3884;48.616;12.872;2022-11-15T01:24:15;2.70;99.90
7684;DHT22;3884;48.616;12.872;2022-11-15T01:27:00;2.80;99.90
7684;DHT22;3884;48.616;12.872;2022-11-15T01:29:48;2.70;99.90
7684;DHT22;3884;48.616;12.872;2022-11-15T01:32:33;2.80;99.90
7684;DHT22;3884;48.616;12.872;2022-11-15T01:35:20;2.80;99.90
7684;DHT22;3884;48.616;12.872;2022-11-15T01:38:05;2.80;99.90
7684;DHT22;3884;48.616;12.872;2022-11-15T01:40:51;2.70;99.90
7684;DHT22;3884;48.616;12.872;2022-11-15T01:43:36;2.70;99.90
7684;DHT22;3884;48.616;12.872;2022-11-15T01:46:28;2.60;99.90
7684;DHT22;3884;48.616;12.872;2022-11-15T01:49:17;2.70;99.90
7684;DHT22;3884;48.616;12.872;2022-11-15T01:52:05;2.70;99.90
7684;DHT22;3884;48.616;12.872;2022-11-15T01:54:55;2.60;99.90
7684;DHT22;3884;48.616;12.872;2022-11-15T01:57:42;2.60;99.90
7684;DHT22;3884;48.616;12.872;2022-11-15T02:00:31;2.70;99.90
7684;DHT22;3884;48.616;12.872;2022-11-15T02:03:18;2.70;99.90
7684;DHT22;3884;48.616;12.872;2022-11-15T02:06:05;2.70;99.90
7684;DHT22;3884;48.616;12.872;2022-11-15T02:08:51;2.80;99.90
7684;DHT22;3884;48.616;12.872;2022-11-15T02:11:37;2.70;99.90
7684;DHT22;3884;48.616;12.872;2022-11-15T02:14:23;2.60;99.90
7684;DHT22;3884;48.616;12.872;2022-11-15T02:17:26;2.70;99.90
7684;DHT22;3884;48.616;12.872;2022-11-15T02:20:43;2.70;99.90
7684;DHT22;3884;48.616;12.872;2022-11-15T02:30:36;2.50;99.90
7684;DHT22;3884;48.616;12.872;2022-11-15T02:33:31;2.60;99.90
7684;DHT22;3884;48.616;12.872;2022-11-15T02:36:26;2.60;99.90
7684;DHT22;3884;48.616;12.872;2022-11-15T02:39:19;2.70;99.90
7684;DHT22;3884;48.616;12.872;2022-11-15T02:42:11;2.60;99.90
7684;DHT22;3884;48.616;12.872;2022-11-15T02:45:16;2.40;99.90
7684;DHT22;3884;48.616;12.872;2022-11-15T02:48:04;2.30;99.90
7684;DHT22;3884;48.616;12.872;2022-11-15T02:50:51;2.20;99.90
7684;DHT22;3884;48.616;12.872;2022-11-15T02:53:37;2.20;99.90
7684;DHT22;3884;48.616;12.872;2022-11-15T02:56:22;2.20;99.90
7684;DHT22;3884;48.616;12.872;2022-11-15T02:59:18;2.30;99.90
7684;DHT22;3884;48.616;12.872;2022-11-15T03:02:18;2.30;99.90
7684;DHT22;3884;48.616;12.872;2022-11-15T03:05:14;2.10;99.90
7684;DHT22;3884;48.616;12.872;2022-11-15T03:08:07;2.10;99.90
7684;DHT22;3884;48.616;12.872;2022-11-15T03:11:02;2.10;99.90
7684;DHT22;3884;48.616;12.872;2022-11-15T03:13:54;2.20;99.90
7684;DHT22;3884;48.616;12.872;2022-11-15T03:16:44;2.30;99.90
7684;DHT22;3884;48.616;12.872;2022-11-15T03:19:34;2.30;99.90
7684;DHT22;3884;48.616;12.872;2022-11-15T03:22:29;2.20;99.90
7684;DHT22;3884;48.616;12.872;2022-11-15T03:25:19;2.20;99.90
7684;DHT22;3884;48.616;12.872;2022-11-15T03:28:07;2.20;99.90
7684;DHT22;3884;48.616;12.872;2022-11-15T03:30:55;2.20;99.90
7684;DHT22;3884;48.616;12.872;2022-11-15T03:33:42;2.20;99.90
7684;DHT22;3884;48.616;12.872;2022-11-15T03:36:30;2.20;99.90
7684;DHT22;3884;48.616;12.872;2022-11-15T03:39:19;2.20;99.90
7684;DHT22;3884;48.616;12.872;2022-11-15T03:42:15;2.30;99.90
7684;DHT22;3884;48.616;12.872;2022-11-15T03:45:08;2.20;99.90
7684;DHT22;3884;48.616;12.872;2022-11-15T03:47:59;2.10;99.90
7684;DHT22;3884;48.616;12.872;2022-11-15T03:50:47;2.10;99.90
7684;DHT22;3884;48.616;12.872;2022-11-15T03:53:33;2.20;99.90
7684;DHT22;3884;48.616;12.872;2022-11-15T03:56:20;2.00;99.90
7684;DHT22;3884;48.616;12.872;2022-11-15T03:59:05;2.00;99.90
7684;DHT22;3884;48.616;12.872;2022-11-15T04:01:51;2.00;99.90
7684;DHT22;3884;48.616;12.872;2022-11-15T04:04:36;2.10;99.90
7684;DHT22;3884;48.616;12.872;2022-11-15T04:07:22;2.20;99.90
7684;DHT22;3884;48.616;12.872;2022-11-15T04:10:08;2.20;99.90
7684;DHT22;3884;48.616;12.872;2022-11-15T04:12:56;2.20;99.90
7684;DHT22;3884;48.616;12.872;2022-11-15T04:15:42;2.20;99.90
7684;DHT22;3884;48.616;12.872;2022-11-15T04:18:27;2.40;99.90
7684;DHT22;3884;48.616;12.872;2022-11-15T04:21:13;2.40;99.90
7684;DHT22;3884;48.616;12.872;2022-11-15T04:24:16;2.50;99.90
7684;DHT22;3884;48.616;12.872;2022-11-15T04:27:02;2.60;99.90
7684;DHT22;3884;48.616;12.872;2022-11-15T04:29:49;2.50;99.90
7684;DHT22;3884;48.616;12.872;2022-11-15T04:32:34;2.40;99.90
7684;DHT22;3884;48.616;12.872;2022-11-15T04:35:20;2.40;99.90
7684;DHT22;3884;48.616;12.872;2022-11-15T04:38:07;2.30;99.90
7684;DHT22;3884;48.616;12.872;2022-11-15T04:40:53;2.20;99.90
7684;DHT22;3884;48.616;12.872;2022-11-15T04:43:38;2.10;99.90
7684;DHT22;3884;48.616;12.872;2022-11-15T04:46:25;2.10;99.90
7684;DHT22;3884;48.616;12.872;2022-11-15T04:49:11;2.00;99.90
7684;DHT22;3884;48.616;12.872;2022-11-15T04:51:56;2.10;99.90
7684;DHT22;3884;48.616;12.872;2022-11-15T04:54:42;2.00;99.90
7684;DHT22;3884;48.616;12.872;2022-11-15T04:57:27;1.90;99.90
7684;DHT22;3884;48.616;12.872;2022-11-15T05:00:15;1.70;99.90
7684;DHT22;3884;48.616;12.872;2022-11-15T05:03:02;1.70;99.90
7684;DHT22;3884;48.616;12.872;2022-11-15T05:06:06;1.70;99.90
7684;DHT22;3884;48.616;12.872;2022-11-15T05:08:51;1.80;99.90
7684;DHT22;3884;48.616;12.872;2022-11-15T05:11:37;1.90;99.90
7684;DHT22;3884;48.616;12.872;2022-11-15T05:14:22;1.70;99.90
7684;DHT22;3884;48.616;12.872;2022-11-15T05:17:08;1.70;99.90
7684;DHT22;3884;48.616;12.872;2022-11-15T05:19:55;1.80;99.90
7684;DHT22;3884;48.616;12.872;2022-11-15T05:22:41;1.90;99.90
7684;DHT22;3884;48.616;12.872;2022-11-15T05:25:27;1.80;99.90
7684;DHT22;3884;48.616;12.872;2022-11-15T05:28:13;1.80;99.90
7684;DHT22;3884;48.616;12.872;2022-11-15T05:31:01;1.80;99.90
7684;DHT22;3884;48.616;12.872;2022-11-15T05:33:46;1.80;99.90
7684;DHT22;3884;48.616;12.872;2022-11-15T05:36:35;1.60;99.90
7684;DHT22;3884;48.616;12.872;2022-11-15T05:39:21;1.60;99.90
7684;DHT22;3884;48.616;12.872;2022-11-15T05:42:09;1.70;99.90
7684;DHT22;3884;48.616;12.872;2022-11-15T05:44:56;1.80;99.90
7684;DHT22;3884;48.616;12.872;2022-11-15T05:47:43;1.90;99.90
7684;DHT22;3884;48.616;12.872;2022-11-15T05:50:29;1.90;99.90
7684;DHT22;3884;48.616;12.872;2022-11-15T05:53:19;1.80;99.90
7684;DHT22;3884;48.616;12.872;2022-11-15T05:56:06;1.80;99.90
7684;DHT22;3884;48.616;12.872;2022-11-15T05:58:55;1.70;99.90
7684;DHT22;3884;48.616;12.872;2022-11-15T06:01:41;1.70;99.90
7684;DHT22;3884;48.616;12.872;2022-11-15T06:04:27;1.70;99.90
7684;DHT22;3884;48.616;12.872;2022-11-15T06:07:12;1.50;99.90
7684;DHT22;3884;48.616;12.872;2022-11-15T06:09:59;1.60;99.90
7684;DHT22;3884;48.616;12.872;2022-11-15T06:12:44;1.70;99.90
7684;DHT22;3884;48.616;12.872;2022-11-15T06:15:32;1.70;99.90
7684;DHT22;3884;48.616;12.872;2022-11-15T06:18:17;1.70;99.90
7684;DHT22;3884;48.616;12.872;2022-11-15T06:21:03;1.70;99.90
7684;DHT22;3884;48.616;12.872;2022-11-15T06:23:49;1.70;99.90
7684;DHT22;3884;48.616;12.872;2022-11-15T06:26:36;1.50;99.90
7684;DHT22;3884;48.616;12.872;2022-11-15T06:29:21;1.50;99.90
7684;DHT22;3884;48.616;12.872;2022-11-15T06:32:06;1.50;99.90
7684;DHT22;3884;48.616;12.872;2022-11-15T06:34:52;1.60;99.90
7684;DHT22;3884;48.616;12.872;2022-11-15T06:37:38;1.80;99.90
7684;DHT22;3884;48.616;12.872;2022-11-15T06:40:23;1.80;99.90
7684;DHT22;3884;48.616;12.872;2022-11-15T06:43:10;1.80;99.90
7684;DHT22;3884;48.616;12.872;2022-11-15T06:45:57;1.60;99.90
7684;DHT22;3884;48.616;12.872;2022-11-15T06:48:43;1.70;99.90
7684;DHT22;3884;48.616;12.872;2022-11-15T06:51:29;1.70;99.90
7684;DHT22;3884;48.616;12.872;2022-11-15T06:54:14;1.70;99.90
7684;DHT22;3884;48.616;12.872;2022-11-15T06:57:00;1.70;99.90
7684;DHT22;3884;48.616;12.872;2022-11-15T06:59:47;1.70;99.90
7684;DHT22;3884;48.616;12.872;2022-11-15T07:02:32;1.60;99.90
7684;DHT22;3884;48.616;12.872;2022-11-15T07:05:18;1.60;99.90
7684;DHT22;3884;48.616;12.872;2022-11-15T07:08:04;1.70;99.90
7684;DHT22;3884;48.616;12.872;2022-11-15T07:10:49;1.80;99.90
7684;DHT22;3884;48.616;12.872;2022-11-15T07:13:35;1.80;99.90
7684;DHT22;3884;48.616;12.872;2022-11-15T07:16:22;1.80;99.90
7684;DHT22;3884;48.616;12.872;2022-11-15T07:19:08;1.80;99.90
7684;DHT22;3884;48.616;12.872;2022-11-15T07:21:54;1.80;99.90
7684;DHT22;3884;48.616;12.872;2022-11-15T07:24:40;1.90;99.90
7684;DHT22;3884;48.616;12.872;2022-11-15T07:27:25;2.00;99.90
7684;DHT22;3884;48.616;12.872;2022-11-15T07:30:12;2.20;99.90
7684;DHT22;3884;48.616;12.872;2022-11-15T07:33:00;2.30;99.90
7684;DHT22;3884;48.616;12.872;2022-11-15T07:35:45;2.30;99.90
7684;DHT22;3884;48.616;12.872;2022-11-15T07:38:34;2.40;99.90
7684;DHT22;3884;48.616;12.872;2022-11-15T07:41:20;2.40;99.90
7684;DHT22;3884;48.616;12.872;2022-11-15T07:44:06;2.50;99.90
7684;DHT22;3884;48.616;12.872;2022-11-15T07:46:52;2.60;99.90
7684;DHT22;3884;48.616;12.872;2022-11-15T07:49:38;2.70;99.90
7684;DHT22;3884;48.616;12.872;2022-11-15T07:52:24;2.80;99.90
7684;DHT22;3884;48.616;12.872;2022-11-15T07:55:10;2.80;99.90
7684;DHT22;3884;48.616;12.872;2022-11-15T07:58:01;2.70;99.90
7684;DHT22;3884;48.616;12.872;2022-11-15T08:00:46;2.80;99.90
7684;DHT22;3884;48.616;12.872;2022-11-15T08:03:32;2.90;99.90
7684;DHT22;3884;48.616;12.872;2022-11-15T08:06:19;3.00;99.90
7684;DHT22;3884;48.616;12.872;2022-11-15T08:09:05;3.10;99.90
7684;DHT22;3884;48.616;12.872;2022-11-15T08:11:50;3.20;99.90
7684;DHT22;3884;48.616;12.872;2022-11-15T08:14:36;3.30;99.90
7684;DHT22;3884;48.616;12.872;2022-11-15T08:17:23;3.30;99.90
7684;DHT22;3884;48.616;12.872;2022-11-15T08:20:14;3.30;99.90
7684;DHT22;3884;48.616;12.872;2022-11-15T08:23:04;3.40;99.90
7684;DHT22;3884;48.616;12.872;2022-11-15T08:25:49;3.50;99.90
7684;DHT22;3884;48.616;12.872;2022-11-15T08:28:35;3.70;99.90
7684;DHT22;3884;48.616;12.872;2022-11-15T08:31:20;3.90;99.90
7684;DHT22;3884;48.616;12.872;2022-11-15T08:34:06;4.30;99.90
7684;DHT22;3884;48.616;12.872;2022-11-15T08:36:52;4.50;99.90
7684;DHT22;3884;48.616;12.872;2022-11-15T08:39:39;4.50;99.90
7684;DHT22;3884;48.616;12.872;2022-11-15T08:42:24;4.60;99.90
7684;DHT22;3884;48.616;12.872;2022-11-15T08:45:10;4.60;99.90
7684;DHT22;3884;48.616;12.872;2022-11-15T08:47:55;5.00;99.90
7684;DHT22;3884;48.616;12.872;2022-11-15T08:50:41;5.20;99.90
7684;DHT22;3884;48.616;12.872;2022-11-15T08:53:27;5.30;99.90
7684;DHT22;3884;48.616;12.872;2022-11-15T08:56:15;5.40;99.90
7684;DHT22;3884;48.616;12.872;2022-11-15T08:59:08;5.40;99.90
7684;DHT22;3884;48.616;12.872;2022-11-15T09:01:54;5.40;99.90
7684;DHT22;3884;48.616;12.872;2022-11-15T09:04:40;5.40;99.90
7684;DHT22;3884;48.616;12.872;2022-11-15T09:07:26;5.40;99.90
7684;DHT22;3884;48.616;12.872;2022-11-15T09:10:14;5.50;99.90
7684;DHT22;3884;48.616;12.872;2022-11-15T09:13:01;5.70;99.90
7684;DHT22;3884;48.616;12.872;2022-11-15T09:15:46;5.90;99.90
7684;DHT22;3884;48.616;12.872;2022-11-15T09:18:32;6.00;99.90
7684;DHT22;3884;48.616;12.872;2022-11-15T09:21:17;6.20;99.90
7684;DHT22;3884;48.616;12.872;2022-11-15T09:24:03;6.40;99.90
7684;DHT22;3884;48.616;12.872;2022-11-15T09:26:49;6.50;99.90
7684;DHT22;3884;48.616;12.872;2022-11-15T09:29:36;6.70;99.90
7684;DHT22;3884;48.616;12.872;2022-11-15T09:32:22;6.70;99.90
7684;DHT22;3884;48.616;12.872;2022-11-15T09:35:08;6.80;99.90
7684;DHT22;3884;48.616;12.872;2022-11-15T09:37:53;6.80;99.90
7684;DHT22;3884;48.616;12.872;2022-11-15T09:40:38;6.70;99.90
7684;DHT22;3884;48.616;12.872;2022-11-15T09:43:30;6.70;99.90
7684;DHT22;3884;48.616;12.872;2022-11-15T09:46:25;6.80;99.90
7684;DHT22;3884;48.616;12.872;2022-11-15T09:49:22;6.90;99.90
7684;DHT22;3884;48.616;12.872;2022-11-15T09:52:12;7.00;99.90
7684;DHT22;3884;48.616;12.872;2022-11-15T09:54:41;7.00;99.90
7684;DHT22;3884;48.616;12.872;2022-11-15T09:57:12;7.20;99.90
7684;DHT22;3884;48.616;12.872;2022-11-15T10:02:51;7.40;99.90
7684;DHT22;3884;48.616;12.872;2022-11-15T10:05:24;7.50;99.90
7684;DHT22;3884;48.616;12.872;2022-11-15T10:07:58;7.60;99.90
7684;DHT22;3884;48.616;12.872;2022-11-15T10:10:32;7.70;99.90
7684;DHT22;3884;48.616;12.872;2022-11-15T10:13:01;7.90;99.90
7684;DHT22;3884;48.616;12.872;2022-11-15T10:15:29;8.30;99.90
7684;DHT22;3884;48.616;12.872;2022-11-15T10:18:08;8.50;99.90
7684;DHT22;3884;48.616;12.872;2022-11-15T10:20:45;8.60;99.90
7684;DHT22;3884;48.616;12.872;2022-11-15T10:23:15;8.60;99.90
7684;DHT22;3884;48.616;12.872;2022-11-15T10:25:42;8.70;99.90
7684;DHT22;3884;48.616;12.872;2022-11-15T10:28:14;8.90;99.90
7684;DHT22;3884;48.616;12.872;2022-11-15T10:30:44;8.90;99.90
7684;DHT22;3884;48.616;12.872;2022-11-15T10:33:23;9.00;99.90
7684;DHT22;3884;48.616;12.872;2022-11-15T10:36:16;9.20;99.90
7684;DHT22;3884;48.616;12.872;2022-11-15T10:38:57;9.20;99.90
7684;DHT22;3884;48.616;12.872;2022-11-15T10:41:34;9.30;99.90
7684;DHT22;3884;48.616;12.872;2022-11-15T10:44:18;9.40;99.90
7684;DHT22;3884;48.616;12.872;2022-11-15T10:46:46;9.50;99.90
7684;DHT22;3884;48.616;12.872;2022-11-15T10:49:19;9.60;99.90
7684;DHT22;3884;48.616;12.872;2022-11-15T10:51:48;9.60;99.90
7684;DHT22;3884;48.616;12.872;2022-11-15T10:54:22;9.80;99.90
7684;DHT22;3884;48.616;12.872;2022-11-15T10:56:52;9.80;99.90
7684;DHT22;3884;48.616;12.872;2022-11-15T10:59:32;9.90;99.90
7684;DHT22;3884;48.616;12.872;2022-11-15T11:01:59;10.10;99.90
7684;DHT22;3884;48.616;12.872;2022-11-15T11:04:28;10.00;99.90
7684;DHT22;3884;48.616;12.872;2022-11-15T11:06:57;10.20;99.90
7684;DHT22;3884;48.616;12.872;2022-11-15T11:09:31;10.30;99.90
7684;DHT22;3884;48.616;12.872;2022-11-15T11:11:59;10.20;99.90
7684;DHT22;3884;48.616;12.872;2022-11-15T11:14:28;10.20;99.90
7684;DHT22;3884;48.616;12.872;2022-11-15T11:17:02;10.20;99.90
7684;DHT22;3884;48.616;12.872;2022-11-15T11:19:46;10.10;99.90
7684;DHT22;3884;48.616;12.872;2022-11-15T11:22:20;10.10;99.90
7684;DHT22;3884;48.616;12.872;2022-11-15T11:24:56;10.10;99.90
7684;DHT22;3884;48.616;12.872;2022-11-15T11:27:36;10.20;99.90
7684;DHT22;3884;48.616;12.872;2022-11-15T11:30:11;10.20;99.90
7684;DHT22;3884;48.616;12.872;2022-11-15T11:33:08;10.40;99.90
7684;DHT22;3884;48.616;12.872;2022-11-15T11:35:48;10.40;99.90
7684;DHT22;3884;48.616;12.872;2022-11-15T11:38:32;10.40;99.90
7684;DHT22;3884;48.616;12.872;2022-11-15T11:41:07;10.40;99.90
7684;DHT22;3884;48.616;12.872;2022-11-15T11:43:45;10.40;99.90
7684;DHT22;3884;48.616;12.872;2022-11-15T11:46:36;10.60;99.90
7684;DHT22;3884;48.616;12.872;2022-11-15T11:49:09;10.50;99.90
7684;DHT22;3884;48.616;12.872;2022-11-15T11:51:40;10.50;99.90
7684;DHT22;3884;48.616;12.872;2022-11-15T11:54:12;10.40;99.90
7684;DHT22;3884;48.616;12.872;2022-11-15T11:56:44;10.40;99.90
7684;DHT22;3884;48.616;12.872;2022-11-15T11:59:19;10.50;99.90
7684;DHT22;3884;48.616;12.872;2022-11-15T12:01:48;10.40;99.90
7684;DHT22;3884;48.616;12.872;2022-11-15T12:04:19;10.60;99.90
7684;DHT22;3884;48.616;12.872;2022-11-15T12:06:51;10.80;99.90
7684;DHT22;3884;48.616;12.872;2022-11-15T12:09:23;10.70;99.90
7684;DHT22;3884;48.616;12.872;2022-11-15T12:12:00;10.70;99.90
7684;DHT22;3884;48.616;12.872;2022-11-15T12:14:33;10.80;99.90
7684;DHT22;3884;48.616;12.872;2022-11-15T12:17:00;10.90;99.90
7684;DHT22;3884;48.616;12.872;2022-11-15T12:19:28;11.10;99.90
7684;DHT22;3884;48.616;12.872;2022-11-15T12:22:01;11.20;99.90
7684;DHT22;3884;48.616;12.872;2022-11-15T12:24:34;11.20;99.90
7684;DHT22;3884;48.616;12.872;2022-11-15T12:27:05;11.30;99.90
7684;DHT22;3884;48.616;12.872;2022-11-15T12:29:36;11.20;99.90
7684;DHT22;3884;48.616;12.872;2022-11-15T12:32:05;11.20;99.90
7684;DHT22;3884;48.616;12.872;2022-11-15T12:34:46;11.40;99.90
7684;DHT22;3884;48.616;12.872;2022-11-15T12:37:47;11.30;99.90
7684;DHT22;3884;48.616;12.872;2022-11-15T12:40:31;11.30;99.90
7684;DHT22;3884;48.616;12.872;2022-11-15T12:45:46;11.30;99.90
7684;DHT22;3884;48.616;12.872;2022-11-15T12:48:50;11.40;99.90
7684;DHT22;3884;48.616;12.872;2022-11-15T12:51:20;11.40;99.90
7684;DHT22;3884;48.616;12.872;2022-11-15T12:53:49;11.60;99.90
7684;DHT22;3884;48.616;12.872;2022-11-15T12:56:21;11.50;99.90
7684;DHT22;3884;48.616;12.872;2022-11-15T12:58:51;11.60;99.90
7684;DHT22;3884;48.616;12.872;2022-11-15T13:04:29;11.60;58.70
7684;DHT22;3884;48.616;12.872;2022-11-15T13:06:59;11.60;50.60
7684;DHT22;3884;48.616;12.872;2022-11-15T13:09:54;11.60;57.50
7684;DHT22;3884;48.616;12.872;2022-11-15T13:12:50;11.60;63.80
7684;DHT22;3884;48.616;12.872;2022-11-15T13:15:45;11.50;90.90
7684;DHT22;3884;48.616;12.872;2022-11-15T13:21:48;11.60;85.30
7684;DHT22;3884;48.616;12.872;2022-11-15T13:24:33;11.50;65.00
7684;DHT22;3884;48.616;12.872;2022-11-15T13:27:01;11.50;87.70
7684;DHT22;3884;48.616;12.872;2022-11-15T13:29:28;11.50;81.20
7684;DHT22;3884;48.616;12.872;2022-11-15T13:31:55;11.50;73.70
7684;DHT22;3884;48.616;12.872;2022-11-15T13:34:26;11.50;95.40
7684;DHT22;3884;48.616;12.872;2022-11-15T13:36:54;11.40;99.90
7684;DHT22;3884;48.616;12.872;2022-11-15T13:39:27;11.50;88.90
7684;DHT22;3884;48.616;12.872;2022-11-15T13:41:55;11.50;98.10
7684;DHT22;3884;48.616;12.872;2022-11-15T13:44:25;11.50;99.90
7684;DHT22;3884;48.616;12.872;2022-11-15T13:47:12;11.60;68.50
7684;DHT22;3884;48.616;12.872;2022-11-15T13:49:40;11.60;99.90
7684;DHT22;3884;48.616;12.872;2022-11-15T13:52:09;11.60;99.90
7684;DHT22;3884;48.616;12.872;2022-11-15T13:54:42;11.60;96.50
7684;DHT22;3884;48.616;12.872;2022-11-15T13:57:20;11.60;99.90
7684;DHT22;3884;48.616;12.872;2022-11-15T13:59:51;11.60;99.90
7684;DHT22;3884;48.616;12.872;2022-11-15T14:02:20;11.60;94.80
7684;DHT22;3884;48.616;12.872;2022-11-15T14:04:50;11.70;94.50
7684;DHT22;3884;48.616;12.872;2022-11-15T14:07:19;11.70;99.90
7684;DHT22;3884;48.616;12.872;2022-11-15T14:09:47;11.60;99.90
7684;DHT22;3884;48.616;12.872;2022-11-15T14:12:24;11.70;99.90
7684;DHT22;3884;48.616;12.872;2022-11-15T14:14:53;11.60;99.90
7684;DHT22;3884;48.616;12.872;2022-11-15T14:17:32;11.70;99.90
7684;DHT22;3884;48.616;12.872;2022-11-15T14:19:59;11.60;99.90
7684;DHT22;3884;48.616;12.872;2022-11-15T14:22:28;11.60;99.90
7684;DHT22;3884;48.616;12.872;2022-11-15T14:25:14;11.60;99.90
7684;DHT22;3884;48.616;12.872;2022-11-15T14:27:43;11.70;99.90
7684;DHT22;3884;48.616;12.872;2022-11-15T14:30:15;11.60;99.90
7684;DHT22;3884;48.616;12.872;2022-11-15T14:32:45;11.60;93.30
7684;DHT22;3884;48.616;12.872;2022-11-15T14:35:16;11.60;30.60
7684;DHT22;3884;48.616;12.872;2022-11-15T14:37:43;11.60;1.00
7684;DHT22;3884;48.616;12.872;2022-11-15T14:40:13;11.60;1.00
7684;DHT22;3884;48.616;12.872;2022-11-15T14:42:41;11.50;99.90
7684;DHT22;3884;48.616;12.872;2022-11-15T14:45:11;11.40;1.00
7684;DHT22;3884;48.616;12.872;2022-11-15T14:47:40;11.40;1.00
7684;DHT22;3884;48.616;12.872;2022-11-15T14:50:11;11.30;1.00
7684;DHT22;3884;48.616;12.872;2022-11-15T14:52:38;11.20;1.00
7684;DHT22;3884;48.616;12.872;2022-11-15T14:55:14;11.00;1.00
7684;DHT22;3884;48.616;12.872;2022-11-15T14:57:43;10.80;1.00
7684;DHT22;3884;48.616;12.872;2022-11-15T15:00:11;10.50;1.00
7684;DHT22;3884;48.616;12.872;2022-11-15T15:02:40;10.20;1.00
7684;DHT22;3884;48.616;12.872;2022-11-15T15:05:14;10.00;1.00
7684;DHT22;3884;48.616;12.872;2022-11-15T15:07:41;9.90;1.00
7684;DHT22;3884;48.616;12.872;2022-11-15T15:10:08;9.80;1.00
7684;DHT22;3884;48.616;12.872;2022-11-15T15:12:35;9.70;1.00
7684;DHT22;3884;48.616;12.872;2022-11-15T15:15:03;9.60;1.00
7684;DHT22;3884;48.616;12.872;2022-11-15T15:17:30;9.50;1.00
7684;DHT22;3884;48.616;12.872;2022-11-15T15:19:58;9.50;1.00
7684;DHT22;3884;48.616;12.872;2022-11-15T15:22:26;9.40;1.00
7684;DHT22;3884;48.616;12.872;2022-11-15T15:24:54;9.30;8.40
7684;DHT22;3884;48.616;12.872;2022-11-15T15:27:21;9.20;22.70
7684;DHT22;3884;48.616;12.872;2022-11-15T15:29:48;9.00;77.20
7684;DHT22;3884;48.616;12.872;2022-11-15T15:32:15;8.80;37.20
7684;DHT22;3884;48.616;12.872;2022-11-15T15:34:42;8.80;67.10
7684;DHT22;3884;48.616;12.872;2022-11-15T15:37:21;8.60;99.90
7684;DHT22;3884;48.616;12.872;2022-11-15T15:39:49;8.50;99.90
7684;DHT22;3884;48.616;12.872;2022-11-15T15:42:16;8.40;99.90
7684;DHT22;3884;48.616;12.872;2022-11-15T15:44:43;8.40;99.90
7684;DHT22;3884;48.616;12.872;2022-11-15T15:47:11;8.20;99.90
7684;DHT22;3884;48.616;12.872;2022-11-15T15:49:39;7.90;99.90
7684;DHT22;3884;48.616;12.872;2022-11-15T15:52:06;7.90;99.90
7684;DHT22;3884;48.616;12.872;2022-11-15T15:54:35;7.80;99.90
7684;DHT22;3884;48.616;12.872;2022-11-15T15:57:02;7.80;99.90
7684;DHT22;3884;48.616;12.872;2022-11-15T15:59:28;7.80;99.90
7684;DHT22;3884;48.616;12.872;2022-11-15T16:01:55;7.70;99.90
7684;DHT22;3884;48.616;12.872;2022-11-15T16:04:22;7.60;99.90
7684;DHT22;3884;48.616;12.872;2022-11-15T16:06:50;7.60;99.90
7684;DHT22;3884;48.616;12.872;2022-11-15T16:09:19;7.60;99.90
7684;DHT22;3884;48.616;12.872;2022-11-15T16:12:08;7.50;99.90
7684;DHT22;3884;48.616;12.872;2022-11-15T16:14:35;7.50;99.90
7684;DHT22;3884;48.616;12.872;2022-11-15T16:17:03;7.40;99.90
7684;DHT22;3884;48.616;12.872;2022-11-15T16:19:30;7.20;99.90
7684;DHT22;3884;48.616;12.872;2022-11-15T16:21:57;7.20;99.90
7684;DHT22;3884;48.616;12.872;2022-11-15T16:24:24;7.10;99.90
7684;DHT22;3884;48.616;12.872;2022-11-15T16:26:51;7.00;99.90
7684;DHT22;3884;48.616;12.872;2022-11-15T16:29:19;7.00;99.90
7684;DHT22;3884;48.616;12.872;2022-11-15T16:31:46;7.00;99.90
7684;DHT22;3884;48.616;12.872;2022-11-15T16:34:13;7.00;99.90
7684;DHT22;3884;48.616;12.872;2022-11-15T16:36:40;6.70;99.90
7684;DHT22;3884;48.616;12.872;2022-11-15T16:39:12;6.60;99.90
7684;DHT22;3884;48.616;12.872;2022-11-15T16:41:41;6.50;99.90
7684;DHT22;3884;48.616;12.872;2022-11-15T16:44:12;6.50;99.90
7684;DHT22;3884;48.616;12.872;2022-11-15T16:46:41;6.50;99.90
7684;DHT22;3884;48.616;12.872;2022-11-15T16:49:12;6.50;99.90
7684;DHT22;3884;48.616;12.872;2022-11-15T16:51:39;6.30;99.90
7684;DHT22;3884;48.616;12.872;2022-11-15T16:54:07;6.30;99.90
7684;DHT22;3884;48.616;12.872;2022-11-15T16:56:34;6.20;99.90
7684;DHT22;3884;48.616;12.872;2022-11-15T16:59:01;6.20;99.90
7684;DHT22;3884;48.616;12.872;2022-11-15T17:01:30;6.20;99.90
7684;DHT22;3884;48.616;12.872;2022-11-15T17:03:59;6.10;99.90
7684;DHT22;3884;48.616;12.872;2022-11-15T17:06:37;6.10;99.90
7684;DHT22;3884;48.616;12.872;2022-11-15T17:09:05;6.00;99.90
7684;DHT22;3884;48.616;12.872;2022-11-15T17:11:32;6.00;99.90
7684;DHT22;3884;48.616;12.872;2022-11-15T17:13:59;5.90;99.90
7684;DHT22;3884;48.616;12.872;2022-11-15T17:16:26;5.80;99.90
7684;DHT22;3884;48.616;12.872;2022-11-15T17:18:53;5.80;99.90
7684;DHT22;3884;48.616;12.872;2022-11-15T17:21:22;5.80;99.90
7684;DHT22;3884;48.616;12.872;2022-11-15T17:23:48;5.80;99.90
7684;DHT22;3884;48.616;12.872;2022-11-15T17:26:16;5.70;99.90
7684;DHT22;3884;48.616;12.872;2022-11-15T17:28:43;5.60;99.90
7684;DHT22;3884;48.616;12.872;2022-11-15T17:31:11;5.50;99.90
7684;DHT22;3884;48.616;12.872;2022-11-15T17:33:39;5.50;99.90
7684;DHT22;3884;48.616;12.872;2022-11-15T17:36:09;5.40;99.90
7684;DHT22;3884;48.616;12.872;2022-11-15T17:38:40;5.40;99.90
7684;DHT22;3884;48.616;12.872;2022-11-15T17:41:09;5.40;99.90
7684;DHT22;3884;48.616;12.872;2022-11-15T17:43:37;5.40;99.90